Time;durP1;ratioP1;P1;durP2;ratioP2;P2;SDS_P1;SDS_P2;PMS_P1;PMS_P2;Temp;Humidity;BMP_temperature;BMP_pressure;BME280_temperature;BME280_humidity;BME280_pressure;Samples;Min_cycle;Max_cycle;Signal;HPM_P1;HPM_P2
2024/01/14 00:01:57;;;;;;;17.13;2.33;;;3.20;99.90;;;;;;5027531;28;20489;-60
2024/01/14 00:04:23;;;;;;;13.43;1.85;;;3.50;99.90;;;;;;5028576;28;20045;-58
2024/01/14 00:06:51;;;;;;;9.50;1.90;;;3.90;99.90;;;;;;5028332;28;20445;-60
2024/01/14 00:09:18;;;;;;;12.45;1.88;;;4.40;99.90;;;;;;5028555;28;20175;-60
2024/01/14 00:11:43;;;;;;;11.45;1.70;;;3.30;99.90;;;;;;5010734;28;20250;-60
2024/01/14 00:14:09;;;;;;;14.48;2.03;;;4.30;99.90;;;;;;5026467;28;20132;-59
2024/01/14 00:16:35;;;;;;;9.00;1.65;;;4.50;99.90;;;;;;5061772;28;20027;-60
2024/01/14 00:19:05;;;;;;;10.63;1.73;;;3.70;99.90;;;;;;5102416;28;20036;-60
2024/01/14 00:21:34;;;;;;;12.20;2.05;;;4.80;99.90;;;;;;5090492;28;20100;-62
2024/01/14 00:23:59;;;;;;;16.15;2.30;;;3.50;99.90;;;;;;5074211;28;20037;-58
2024/01/14 00:26:27;;;;;;;15.60;1.77;;;4.80;99.90;;;;;;5096368;28;20038;-59
2024/01/14 00:28:54;;;;;;;12.43;1.73;;;4.80;99.90;;;;;;5051869;28;20041;-60
2024/01/14 00:31:20;;;;;;;8.55;1.55;;;4.70;99.90;;;;;;5038250;28;20096;-59
2024/01/14 00:33:45;;;;;;;11.70;1.98;;;3.60;99.90;;;;;;5027450;28;20043;-60
2024/01/14 00:36:11;;;;;;;13.85;1.73;;;3.50;99.90;;;;;;5044832;28;20125;-59
2024/01/14 00:38:37;;;;;;;10.88;1.73;;;3.50;99.90;;;;;;5094974;28;20028;-58
2024/01/14 00:41:04;;;;;;;15.43;1.73;;;4.70;99.90;;;;;;5026490;28;20043;-59
2024/01/14 00:43:29;;;;;;;11.38;1.35;;;3.80;99.90;;;;;;5111093;28;20090;-60
2024/01/14 00:45:55;;;;;;;13.43;1.90;;;4.10;99.90;;;;;;5059182;28;20081;-60
2024/01/14 00:48:21;;;;;;;18.13;1.98;;;3.50;99.90;;;;;;5046111;28;20452;-60
2024/01/14 00:50:47;;;;;;;13.77;1.65;;;4.10;99.90;;;;;;5025341;28;20037;-59
2024/01/14 00:53:13;;;;;;;13.35;1.75;;;4.40;99.90;;;;;;5111114;28;20105;-60
2024/01/14 00:55:39;;;;;;;6.72;0.90;;;3.90;99.90;;;;;;5110718;28;20040;-59
2024/01/14 00:58:04;;;;;;;16.15;1.40;;;3.70;99.90;;;;;;5110881;28;20039;-60
2024/01/14 01:00:31;;;;;;;10.27;1.05;;;3.50;99.90;;;;;;5108177;28;20088;-58
2024/01/14 01:02:56;;;;;;;15.13;1.50;;;4.30;99.90;;;;;;5104497;28;20514;-59
2024/01/14 01:05:22;;;;;;;8.13;1.25;;;4.70;99.90;;;;;;5106575;28;20084;-59
2024/01/14 01:07:48;;;;;;;9.85;1.40;;;4.70;99.90;;;;;;5109337;28;20043;-60
2024/01/14 01:10:13;;;;;;;11.23;1.60;;;3.80;99.90;;;;;;5033067;28;20091;-60
2024/01/14 01:12:39;;;;;;;12.45;1.40;;;4.50;99.90;;;;;;5027665;28;20038;-59
2024/01/14 01:15:05;;;;;;;12.15;1.60;;;4.80;99.90;;;;;;5030458;28;20041;-61
2024/01/14 01:17:32;;;;;;;9.95;1.33;;;4.40;99.90;;;;;;5024572;28;20037;-60
2024/01/14 01:19:59;;;;;;;8.25;1.30;;;3.90;99.90;;;;;;5114960;28;20035;-59
2024/01/14 01:22:25;;;;;;;10.57;2.25;;;3.60;99.90;;;;;;5106933;28;20489;-59
2024/01/14 01:24:50;;;;;;;11.00;1.75;;;4.50;99.90;;;;;;5114894;28;20039;-60
2024/01/14 01:27:16;;;;;;;15.57;1.65;;;3.60;99.90;;;;;;5112223;27;20444;-60
2024/01/14 01:29:43;;;;;;;15.80;2.30;;;3.60;99.90;;;;;;5114561;28;20042;-59
2024/01/14 01:32:09;;;;;;;9.27;1.65;;;4.00;99.90;;;;;;5050707;28;20144;-60
2024/01/14 01:34:35;;;;;;;13.73;1.42;;;4.50;99.90;;;;;;5030859;28;20048;-58
2024/01/14 01:37:02;;;;;;;9.80;1.58;;;3.40;99.90;;;;;;5030427;28;20038;-59
2024/01/14 01:39:28;;;;;;;15.43;1.65;;;4.50;99.90;;;;;;5030735;28;20515;-59
2024/01/14 01:41:53;;;;;;;16.38;1.73;;;4.50;99.90;;;;;;5030298;28;20033;-59
2024/01/14 01:44:19;;;;;;;11.40;1.75;;;3.50;99.90;;;;;;5057627;28;20047;-57
2024/01/14 01:46:46;;;;;;;10.95;1.50;;;3.40;99.90;;;;;;5029958;28;20034;-59
2024/01/14 01:49:12;;;;;;;17.17;1.52;;;4.10;99.90;;;;;;5069072;28;20043;-61
2024/01/14 01:51:40;;;;;;;16.75;1.40;;;3.60;99.90;;;;;;5114281;28;20051;-59
2024/01/14 01:54:08;;;;;;;10.85;1.77;;;3.30;99.90;;;;;;5060410;28;20409;-59
2024/01/14 01:56:37;;;;;;;13.05;1.73;;;4.00;99.90;;;;;;5042655;28;20043;-60
2024/01/14 01:59:04;;;;;;;9.30;1.98;;;3.70;99.90;;;;;;5079384;28;20059;-60
2024/01/14 02:01:32;;;;;;;12.55;2.35;;;3.50;99.90;;;;;;5029107;28;20041;-60
2024/01/14 02:04:00;;;;;;;9.18;1.75;;;4.30;99.90;;;;;;5032372;28;20455;-60
2024/01/14 02:06:27;;;;;;;8.10;1.63;;;3.50;99.90;;;;;;5073111;28;20035;-59
2024/01/14 02:08:54;;;;;;;12.68;1.95;;;3.90;99.90;;;;;;5111760;28;20058;-62
2024/01/14 02:11:20;;;;;;;11.00;1.55;;;4.20;99.90;;;;;;5030212;28;20045;-60
2024/01/14 02:13:46;;;;;;;12.40;1.83;;;4.40;99.90;;;;;;5030006;28;20041;-60
2024/01/14 02:16:12;;;;;;;11.30;1.30;;;3.80;99.90;;;;;;5029868;28;20048;-60
2024/01/14 02:18:37;;;;;;;14.98;1.83;;;4.20;99.90;;;;;;5093254;28;20042;-61
2024/01/14 02:21:03;;;;;;;13.32;1.67;;;3.90;99.90;;;;;;5113557;28;20028;-60
2024/01/14 02:23:33;;;;;;;10.60;1.77;;;3.70;99.90;;;;;;5031073;28;20037;-59
2024/01/14 02:26:00;;;;;;;13.07;1.67;;;3.40;99.90;;;;;;5107415;28;20463;-58
2024/01/14 02:28:25;;;;;;;14.80;1.88;;;4.40;99.90;;;;;;5113065;28;20122;-59
2024/01/14 02:30:53;;;;;;;12.90;1.60;;;4.50;99.90;;;;;;5037475;28;20124;-61
2024/01/14 02:33:20;;;;;;;15.35;1.90;;;4.30;99.90;;;;;;5029886;28;20037;-60
2024/01/14 02:35:45;;;;;;;20.13;2.58;;;3.70;99.90;;;;;;5073255;28;20065;-59
2024/01/14 02:38:11;;;;;;;12.93;1.83;;;3.40;99.90;;;;;;5106983;28;20139;-59
2024/01/14 02:40:37;;;;;;;14.10;1.60;;;4.00;99.90;;;;;;5063137;28;20496;-58
2024/01/14 02:43:03;;;;;;;15.88;1.85;;;3.70;99.90;;;;;;5048301;28;20031;-58
2024/01/14 02:45:31;;;;;;;11.63;1.55;;;3.30;99.90;;;;;;5101426;28;20102;-59
2024/01/14 02:47:57;;;;;;;14.45;1.48;;;4.30;99.90;;;;;;5113046;28;20107;-58
2024/01/14 02:50:23;;;;;;;19.95;1.38;;;4.30;99.90;;;;;;5112892;28;20072;-60
2024/01/14 02:52:49;;;;;;;10.73;1.33;;;3.60;99.90;;;;;;5113102;28;20063;-60
2024/01/14 02:55:14;;;;;;;11.10;1.40;;;3.90;99.90;;;;;;5106051;28;20082;-60
2024/01/14 02:57:40;;;;;;;13.27;1.67;;;3.20;99.90;;;;;;5095371;28;20043;-59
2024/01/14 03:00:06;;;;;;;10.88;1.45;;;3.70;99.90;;;;;;5087871;28;20563;-60
2024/01/14 03:02:32;;;;;;;11.80;1.90;;;4.40;99.90;;;;;;5029199;28;20068;-59
2024/01/14 03:04:58;;;;;;;7.55;1.10;;;4.10;99.90;;;;;;5028804;28;20057;-59
2024/01/14 03:07:24;;;;;;;10.35;2.25;;;4.30;99.90;;;;;;5027749;28;20052;-62
2024/01/14 03:09:50;;;;;;;10.73;1.40;;;4.10;99.90;;;;;;5091728;28;20042;-60
2024/01/14 03:12:15;;;;;;;9.90;1.33;;;4.50;99.90;;;;;;5029578;28;20040;-59
2024/01/14 03:14:41;;;;;;;8.13;1.00;;;3.60;99.90;;;;;;5112251;28;20528;-59
2024/01/14 03:17:06;;;;;;;9.98;1.10;;;4.50;99.90;;;;;;5086373;28;20499;-58
2024/01/14 03:19:32;;;;;;;11.70;1.45;;;4.20;99.90;;;;;;5029000;28;20048;-59
2024/01/14 03:21:59;;;;;;;14.15;1.35;;;4.50;99.90;;;;;;5029345;28;20045;-57
2024/01/14 03:24:25;;;;;;;6.68;0.80;;;3.60;99.90;;;;;;5045875;28;20130;-59
2024/01/14 03:26:51;;;;;;;11.15;1.58;;;4.80;99.90;;;;;;5028860;28;20120;-59
2024/01/14 03:29:17;;;;;;;9.52;1.05;;;3.60;99.90;;;;;;5029113;28;20041;-60
2024/01/14 03:31:42;;;;;;;19.70;1.30;;;4.50;99.90;;;;;;5028701;28;20118;-59
2024/01/14 03:34:08;;;;;;;5.88;1.10;;;3.70;99.90;;;;;;5028592;28;20173;-60
2024/01/14 03:36:34;;;;;;;9.70;0.93;;;4.30;99.90;;;;;;5028530;28;20137;-60
2024/01/14 03:38:59;;;;;;;8.80;1.15;;;4.40;99.90;;;;;;5039737;28;20510;-59
2024/01/14 03:41:26;;;;;;;8.07;1.25;;;3.40;99.90;;;;;;5111088;28;20123;-59
2024/01/14 03:43:51;;;;;;;8.13;1.27;;;3.60;99.90;;;;;;5111950;28;20488;-60
2024/01/14 03:46:17;;;;;;;10.05;1.00;;;4.30;99.90;;;;;;5111659;28;20040;-60
2024/01/14 03:48:43;;;;;;;14.38;1.25;;;3.50;99.90;;;;;;5033495;28;20075;-58
2024/01/14 03:51:09;;;;;;;12.35;1.23;;;4.20;99.90;;;;;;5112059;28;20032;-59
2024/01/14 03:53:34;;;;;;;7.95;1.30;;;4.50;99.90;;;;;;5111717;27;20123;-58
2024/01/14 03:56:00;;;;;;;13.07;1.10;;;4.10;99.90;;;;;;5112089;28;20142;-59
2024/01/14 03:58:26;;;;;;;8.98;1.45;;;4.40;99.90;;;;;;5111296;28;20055;-59
2024/01/14 04:00:51;;;;;;;8.98;1.25;;;3.40;99.90;;;;;;5111597;28;20031;-61
2024/01/14 04:03:17;;;;;;;12.10;1.38;;;3.90;99.90;;;;;;5076491;28;20081;-60
2024/01/14 04:05:43;;;;;;;13.70;1.27;;;3.60;99.90;;;;;;5028529;28;20053;-59
2024/01/14 04:08:08;;;;;;;8.70;1.27;;;4.50;99.90;;;;;;5083700;28;20110;-61
2024/01/14 04:10:35;;;;;;;10.48;1.85;;;3.50;99.90;;;;;;5111007;28;20032;-59
2024/01/14 04:13:00;;;;;;;12.10;1.20;;;3.50;99.90;;;;;;5111443;28;20066;-58
2024/01/14 04:15:26;;;;;;;13.48;1.70;;;4.30;99.90;;;;;;5030324;28;20492;-59
2024/01/14 04:17:52;;;;;;;15.05;1.42;;;3.60;99.90;;;;;;5027050;28;20445;-59
2024/01/14 04:20:17;;;;;;;13.15;1.65;;;3.60;99.90;;;;;;5028124;28;20037;-59
2024/01/14 04:22:43;;;;;;;11.32;0.95;;;3.60;99.90;;;;;;5028008;28;20086;-58
2024/01/14 04:25:09;;;;;;;13.70;1.38;;;4.70;99.90;;;;;;5027950;28;20045;-59
2024/01/14 04:27:36;;;;;;;15.35;1.58;;;4.50;99.90;;;;;;5028309;28;20047;-59
2024/01/14 04:30:03;;;;;;;11.85;1.60;;;4.10;99.90;;;;;;5039843;28;20562;-58
2024/01/14 04:32:29;;;;;;;12.15;1.13;;;4.00;99.90;;;;;;5103912;28;20474;-59
2024/01/14 04:34:55;;;;;;;13.75;1.80;;;4.70;99.90;;;;;;5076160;28;20183;-59
2024/01/14 04:37:20;;;;;;;8.55;1.20;;;3.60;99.90;;;;;;5099079;28;20087;-59
2024/01/14 04:39:46;;;;;;;13.77;1.50;;;4.00;99.90;;;;;;5107555;28;20501;-59
2024/01/14 04:42:11;;;;;;;8.43;1.38;;;4.00;99.90;;;;;;5028168;28;20604;-60
2024/01/14 04:44:37;;;;;;;11.25;1.50;;;3.40;99.90;;;;;;5046655;28;20083;-59
2024/01/14 04:47:03;;;;;;;8.65;1.02;;;4.10;99.90;;;;;;5111002;28;20050;-59
2024/01/14 04:49:29;;;;;;;10.30;2.00;;;3.30;99.90;;;;;;5113710;28;20224;-59
2024/01/14 04:51:55;;;;;;;10.27;1.42;;;3.60;99.90;;;;;;5030705;28;20139;-59
2024/01/14 04:54:20;;;;;;;10.68;2.10;;;3.30;99.90;;;;;;5051274;28;20134;-59
2024/01/14 04:56:46;;;;;;;16.73;2.28;;;3.60;99.90;;;;;;5115383;28;20027;-59
2024/01/14 04:59:11;;;;;;;11.50;1.85;;;4.00;99.90;;;;;;5109922;28;20039;-59
2024/01/14 05:01:37;;;;;;;19.60;1.80;;;4.20;99.90;;;;;;5048730;28;20037;-59
2024/01/14 05:04:03;;;;;;;14.73;1.90;;;4.30;99.90;;;;;;5030863;28;20049;-58
2024/01/14 05:06:29;;;;;;;12.88;1.70;;;4.00;99.90;;;;;;5031218;28;20519;-58
2024/01/14 05:08:55;;;;;;;9.90;1.58;;;3.50;99.90;;;;;;5028893;28;20030;-59
2024/01/14 05:11:21;;;;;;;12.27;1.70;;;3.50;99.90;;;;;;5023527;28;20042;-59
2024/01/14 05:13:47;;;;;;;9.63;1.80;;;4.20;99.90;;;;;;5043983;28;20114;-61
2024/01/14 05:16:13;;;;;;;14.68;2.03;;;3.50;99.90;;;;;;5086842;28;20093;-60
2024/01/14 05:18:39;;;;;;;6.45;1.40;;;3.10;99.90;;;;;;5028061;28;20042;-58
2024/01/14 05:21:06;;;;;;;10.55;1.45;;;4.30;99.90;;;;;;5114724;28;20048;-60
2024/01/14 05:23:32;;;;;;;10.98;1.13;;;4.00;99.90;;;;;;5114458;28;20051;-59
2024/01/14 05:25:57;;;;;;;10.10;1.73;;;4.30;99.90;;;;;;5031421;28;20449;-59
2024/01/14 05:28:23;;;;;;;7.80;1.20;;;4.30;99.90;;;;;;5031021;28;20429;-58
2024/01/14 05:30:48;;;;;;;10.43;1.17;;;4.30;99.90;;;;;;5030897;28;20140;-59
2024/01/14 05:33:14;;;;;;;11.80;1.33;;;4.30;99.90;;;;;;5088671;28;20431;-59
2024/01/14 05:35:40;;;;;;;8.63;1.27;;;3.80;99.90;;;;;;5034631;28;20029;-59
2024/01/14 05:38:05;;;;;;;7.35;1.25;;;3.60;99.90;;;;;;5029855;28;20030;-58
2024/01/14 05:40:32;;;;;;;5.97;1.13;;;3.10;99.90;;;;;;5100596;28;20039;-59
2024/01/14 05:42:57;;;;;;;7.43;1.05;;;4.10;99.90;;;;;;5114030;28;20059;-59
2024/01/14 05:45:23;;;;;;;9.10;1.10;;;3.70;99.90;;;;;;5114385;28;20078;-59
2024/01/14 05:47:50;;;;;;;10.15;1.20;;;3.10;99.90;;;;;;5114396;28;20043;-59
2024/01/14 05:50:15;;;;;;;10.68;0.93;;;3.80;99.90;;;;;;5114280;28;20062;-61
2024/01/14 05:52:41;;;;;;;9.02;1.42;;;3.60;99.90;;;;;;5114237;28;20071;-58
2024/01/14 05:55:08;;;;;;;8.00;0.85;;;3.70;99.90;;;;;;5113890;28;20085;-60
2024/01/14 05:57:33;;;;;;;9.43;1.10;;;3.30;99.90;;;;;;5114025;28;20036;-60
2024/01/14 05:59:59;;;;;;;9.32;0.88;;;3.70;99.90;;;;;;5027175;28;20067;-60
2024/01/14 06:02:25;;;;;;;9.07;1.13;;;4.40;99.90;;;;;;5105397;28;20053;-59
2024/01/14 06:04:50;;;;;;;9.13;1.05;;;4.40;99.90;;;;;;5102213;28;20105;-59
2024/01/14 06:07:16;;;;;;;10.38;1.40;;;4.40;99.90;;;;;;5060691;28;20053;-59
2024/01/14 06:09:42;;;;;;;7.38;0.73;;;4.40;99.90;;;;;;5096522;28;20032;-59
2024/01/14 06:12:08;;;;;;;8.55;1.05;;;3.20;99.90;;;;;;5113746;28;20474;-59
2024/01/14 06:14:35;;;;;;;7.85;1.27;;;3.80;99.90;;;;;;5036462;28;20120;-59
2024/01/14 06:17:01;;;;;;;8.50;0.80;;;3.80;99.90;;;;;;5113746;28;20031;-59
2024/01/14 06:19:27;;;;;;;11.77;1.23;;;4.50;99.90;;;;;;5100321;28;20126;-60
2024/01/14 06:21:52;;;;;;;7.70;1.05;;;3.30;99.90;;;;;;5062562;28;20041;-58
2024/01/14 06:24:18;;;;;;;11.52;1.10;;;4.20;99.90;;;;;;5051092;28;20043;-60
2024/01/14 06:26:44;;;;;;;8.00;1.00;;;3.30;99.90;;;;;;5113361;28;20063;-59
2024/01/14 06:29:10;;;;;;;6.47;1.38;;;3.30;99.90;;;;;;5056249;28;20098;-60
2024/01/14 06:31:36;;;;;;;10.52;1.48;;;3.20;99.90;;;;;;5029954;28;20085;-59
2024/01/14 06:34:02;;;;;;;7.95;0.90;;;4.50;99.90;;;;;;5029670;28;20429;-61
2024/01/14 06:36:28;;;;;;;5.18;1.00;;;4.60;99.90;;;;;;5029455;28;20036;-58
2024/01/14 06:38:53;;;;;;;10.77;1.20;;;3.50;99.90;;;;;;5029347;28;20081;-61
2024/01/14 06:41:20;;;;;;;12.07;1.00;;;3.30;99.90;;;;;;5029486;28;20041;-59
2024/01/14 06:43:46;;;;;;;10.35;1.08;;;4.40;99.90;;;;;;5029808;28;20433;-59
2024/01/14 06:46:12;;;;;;;5.07;0.95;;;3.50;99.90;;;;;;5083080;28;20050;-58
2024/01/14 06:48:38;;;;;;;6.30;1.10;;;4.50;99.90;;;;;;5105967;28;20074;-60
2024/01/14 06:51:04;;;;;;;10.70;1.25;;;4.10;99.90;;;;;;5102790;27;20158;-59
2024/01/14 06:53:30;;;;;;;13.00;1.63;;;4.30;99.90;;;;;;5084886;28;20120;-59
2024/01/14 06:55:56;;;;;;;12.25;2.00;;;3.50;99.90;;;;;;5089695;28;20114;-60
2024/01/14 06:58:22;;;;;;;9.63;1.00;;;4.00;99.90;;;;;;5030179;28;20456;-60
2024/01/14 07:00:47;;;;;;;14.18;1.20;;;4.20;99.90;;;;;;5065656;28;20137;-59
2024/01/14 07:03:13;;;;;;;7.50;1.10;;;4.40;99.90;;;;;;5063263;28;20057;-58
2024/01/14 07:05:39;;;;;;;6.85;1.00;;;4.50;99.90;;;;;;5029614;28;20129;-58
2024/01/14 07:08:05;;;;;;;10.77;1.33;;;3.20;99.90;;;;;;5048693;28;20494;-59
2024/01/14 07:10:31;;;;;;;9.25;1.45;;;4.50;99.90;;;;;;5044159;28;20030;-61
2024/01/14 07:12:57;;;;;;;6.72;1.30;;;4.50;99.90;;;;;;5075497;28;20385;-58
2024/01/14 07:15:23;;;;;;;5.18;1.27;;;4.10;99.90;;;;;;5098530;28;20037;-59
2024/01/14 07:17:49;;;;;;;10.07;1.00;;;4.50;99.90;;;;;;5053654;28;20391;-58
2024/01/14 07:20:15;;;;;;;8.15;1.35;;;4.40;99.90;;;;;;5084179;28;20037;-59
2024/01/14 07:22:41;;;;;;;10.27;0.90;;;4.50;99.90;;;;;;5088045;28;20595;-60
2024/01/14 07:25:08;;;;;;;6.18;1.50;;;3.70;99.90;;;;;;5081854;28;20031;-59
2024/01/14 07:27:35;;;;;;;9.40;1.10;;;3.20;99.90;;;;;;5035173;28;20045;-59
2024/01/14 07:30:01;;;;;;;12.13;1.33;;;4.10;99.90;;;;;;5028729;28;20040;-59
2024/01/14 07:32:27;;;;;;;6.88;1.20;;;3.70;99.90;;;;;;5054297;28;20077;-57
2024/01/14 07:34:52;;;;;;;6.95;0.95;;;3.20;99.90;;;;;;5111949;28;20518;-60
2024/01/14 07:37:18;;;;;;;8.30;1.20;;;4.10;99.90;;;;;;5028667;28;20033;-58
2024/01/14 07:39:45;;;;;;;4.15;1.40;;;4.40;99.90;;;;;;5111610;27;20173;-59
2024/01/14 07:42:11;;;;;;;5.32;1.15;;;4.20;99.90;;;;;;5111970;28;20042;-59
2024/01/14 07:44:36;;;;;;;8.88;1.30;;;3.60;99.90;;;;;;5094178;28;20039;-58
2024/01/14 07:47:02;;;;;;;8.70;1.42;;;3.10;99.90;;;;;;5111567;28;20047;-60
2024/01/14 07:49:28;;;;;;;8.65;1.60;;;4.00;99.90;;;;;;5111842;28;20525;-59
2024/01/14 07:51:53;;;;;;;8.85;1.10;;;3.10;99.90;;;;;;5112006;28;20047;-59
2024/01/14 07:54:19;;;;;;;10.77;1.20;;;3.40;99.90;;;;;;5103404;28;20039;-58
2024/01/14 07:56:45;;;;;;;11.95;1.50;;;2.10;99.90;;;;;;5027078;28;20030;-58
2024/01/14 07:59:10;;;;;;;11.80;1.42;;;3.40;99.90;;;;;;5023992;28;20048;-59
2024/01/14 08:01:37;;;;;;;13.68;1.52;;;3.00;99.90;;;;;;5001949;28;20402;-60
2024/01/14 08:04:03;;;;;;;11.52;1.63;;;3.10;99.90;;;;;;5024628;28;20062;-59
2024/01/14 08:06:29;;;;;;;7.70;1.60;;;3.40;99.90;;;;;;5034900;28;20081;-58
2024/01/14 08:08:55;;;;;;;12.68;1.90;;;3.40;99.90;;;;;;5022417;28;20059;-59
2024/01/14 08:11:21;;;;;;;8.60;1.80;;;3.70;99.90;;;;;;5023517;28;20038;-59
2024/01/14 08:13:47;;;;;;;12.65;2.00;;;4.00;99.90;;;;;;5030507;28;20045;-59
2024/01/14 08:16:14;;;;;;;13.40;2.00;;;4.20;99.90;;;;;;5007900;28;20112;-58
2024/01/14 08:18:41;;;;;;;11.38;2.45;;;3.00;99.90;;;;;;5020912;28;20054;-60
2024/01/14 08:21:10;;;;;;;15.82;2.55;;;3.50;99.90;;;;;;5024265;28;20616;-59
2024/01/14 08:23:37;;;;;;;16.70;2.85;;;4.10;99.90;;;;;;5016399;28;20393;-59
2024/01/14 08:26:03;;;;;;;14.68;3.00;;;3.00;99.90;;;;;;5020866;28;20038;-59
2024/01/14 08:28:34;;;;;;;13.68;3.17;;;4.40;99.90;;;;;;5023955;28;20034;-60
2024/01/14 08:31:00;;;;;;;12.65;2.85;;;3.20;99.90;;;;;;5019758;28;20050;-60
2024/01/14 08:33:26;;;;;;;9.05;2.33;;;4.50;99.90;;;;;;5021055;28;20121;-60
2024/01/14 08:35:53;;;;;;;8.35;2.00;;;3.10;99.90;;;;;;5001181;28;20040;-58
2024/01/14 08:38:20;;;;;;;9.30;2.55;;;3.20;99.90;;;;;;4982158;28;20038;-60
2024/01/14 08:40:46;;;;;;;10.93;2.40;;;4.30;99.90;;;;;;5020491;28;20042;-58
2024/01/14 08:43:12;;;;;;;8.07;1.98;;;3.70;99.90;;;;;;5028674;28;20497;-58
2024/01/14 08:45:38;;;;;;;16.88;5.32;;;4.40;99.90;;;;;;5002466;28;20069;-59
2024/01/14 08:48:06;;;;;;;22.73;7.72;;;3.20;99.90;;;;;;5028657;28;20030;-58
2024/01/14 08:50:32;;;;;;;28.27;9.93;;;3.20;99.90;;;;;;5006428;28;20084;-59
2024/01/14 08:52:58;;;;;;;28.58;9.85;;;3.20;99.90;;;;;;5023809;28;20043;-59
2024/01/14 08:55:24;;;;;;;29.00;9.82;;;3.50;99.90;;;;;;5024422;28;20046;-59
2024/01/14 08:57:50;;;;;;;32.92;9.98;;;3.20;99.90;;;;;;5022138;28;20036;-60
2024/01/14 09:00:16;;;;;;;27.55;9.73;;;3.20;99.90;;;;;;5021289;28;20032;-59
2024/01/14 09:02:41;;;;;;;45.13;10.85;;;4.40;99.90;;;;;;5015175;28;20031;-59
2024/01/14 09:05:07;;;;;;;40.47;12.55;;;3.50;99.90;;;;;;5029017;28;20476;-59
2024/01/14 09:07:36;;;;;;;37.00;12.48;;;3.00;99.90;;;;;;5018553;28;20423;-60
2024/01/14 09:10:02;;;;;;;42.20;15.30;;;3.00;99.90;;;;;;5005922;28;20038;-59
2024/01/14 09:12:28;;;;;;;55.70;17.63;;;3.40;99.90;;;;;;5019066;28;20416;-58
2024/01/14 09:14:54;;;;;;;68.95;20.23;;;3.20;99.90;;;;;;5025931;28;20134;-60
2024/01/14 09:17:20;;;;;;;57.53;19.73;;;3.00;99.90;;;;;;5020182;28;20026;-59
2024/01/14 09:19:45;;;;;;;68.30;19.90;;;4.20;99.90;;;;;;5016131;28;20088;-60
2024/01/14 09:22:11;;;;;;;68.18;21.30;;;4.40;99.90;;;;;;5015829;28;20040;-59
2024/01/14 09:24:42;;;;;;;68.47;22.02;;;3.90;99.90;;;;;;5000969;28;20034;-61
2024/01/14 09:27:08;;;;;;;78.63;23.55;;;3.90;99.90;;;;;;5020510;28;20045;-60
2024/01/14 09:29:34;;;;;;;74.18;23.50;;;4.20;99.90;;;;;;5009532;28;20042;-59
2024/01/14 09:31:59;;;;;;;81.93;25.75;;;4.00;99.90;;;;;;5009757;28;20052;-60
2024/01/14 09:34:25;;;;;;;87.05;25.70;;;4.10;99.90;;;;;;5013437;28;20111;-59
2024/01/14 09:36:50;;;;;;;94.47;26.25;;;3.20;99.90;;;;;;5026646;28;20055;-59
2024/01/14 09:39:16;;;;;;;92.05;28.30;;;3.20;99.90;;;;;;5018570;28;20062;-59
2024/01/14 09:41:55;;;;;;;83.65;26.42;;;4.50;99.90;;;;;;5020674;28;20026;-60
2024/01/14 09:44:21;;;;;;;84.55;26.77;;;4.60;99.90;;;;;;5013911;28;20037;-60
2024/01/14 09:46:47;;;;;;;78.00;27.25;;;4.30;99.90;;;;;;5004692;28;20033;-59
2024/01/14 09:49:15;;;;;;;75.25;23.98;;;3.50;99.90;;;;;;5027938;28;20042;-60
2024/01/14 09:51:41;;;;;;;86.38;26.25;;;3.20;99.90;;;;;;5020807;28;20042;-59
2024/01/14 09:54:07;;;;;;;70.32;24.85;;;3.20;99.90;;;;;;5026604;28;20406;-59
2024/01/14 09:56:35;;;;;;;76.97;24.80;;;4.50;99.90;;;;;;5014938;28;20045;-59
2024/01/14 09:59:02;;;;;;;80.82;25.90;;;4.10;99.90;;;;;;5084970;28;20088;-58
2024/01/14 10:01:33;;;;;;;71.32;25.77;;;3.70;99.90;;;;;;5087853;28;20028;-58
2024/01/14 10:04:03;;;;;;;65.53;23.25;;;4.60;99.90;;;;;;5098640;28;20044;-59
2024/01/14 10:06:29;;;;;;;72.22;24.95;;;4.10;99.90;;;;;;5090159;28;20521;-60
2024/01/14 10:08:56;;;;;;;61.58;23.30;;;4.90;99.90;;;;;;5088689;28;20060;-60
2024/01/14 10:11:22;;;;;;;66.18;23.42;;;4.60;99.90;;;;;;5075042;28;20451;-60
2024/01/14 10:13:49;;;;;;;59.97;22.67;;;4.00;99.90;;;;;;5070328;27;20035;-59
2024/01/14 10:16:15;;;;;;;62.53;21.15;;;4.40;99.90;;;;;;5085820;28;20036;-60
2024/01/14 10:18:41;;;;;;;62.60;20.73;;;4.00;99.90;;;;;;5080699;28;20023;-59
2024/01/14 10:21:06;;;;;;;61.88;20.27;;;3.60;99.90;;;;;;5084928;28;20140;-59
2024/01/14 10:23:32;;;;;;;51.75;17.50;;;3.60;99.90;;;;;;5102726;28;20032;-59
2024/01/14 10:26:02;;;;;;;57.60;18.55;;;3.70;99.90;;;;;;5073328;28;20092;-59
2024/01/14 10:28:45;;;;;;;53.22;19.80;;;3.90;99.90;;;;;;5076685;28;20089;-60
2024/01/14 10:31:11;;;;;;;62.55;18.77;;;4.70;99.90;;;;;;5060710;28;20085;-61
2024/01/14 10:33:37;;;;;;;53.33;18.10;;;3.50;99.90;;;;;;5061974;28;20082;-60
2024/01/14 10:36:07;;;;;;;58.92;21.08;;;4.80;99.90;;;;;;5074969;28;20034;-58
2024/01/14 10:38:36;;;;;;;68.50;22.80;;;3.80;99.90;;;;;;5065324;28;20391;-60
2024/01/14 10:41:06;;;;;;;77.18;25.58;;;4.00;99.90;;;;;;5080634;28;20489;-58
2024/01/14 10:43:33;;;;;;;74.45;25.40;;;3.50;99.90;;;;;;5113037;28;20032;-59
2024/01/14 10:45:59;;;;;;;66.30;25.70;;;4.60;99.90;;;;;;5103434;28;20088;-57
2024/01/14 10:48:26;;;;;;;67.63;23.02;;;4.90;99.90;;;;;;5112848;28;20110;-57
2024/01/14 10:51:00;;;;;;;75.40;25.38;;;4.30;99.90;;;;;;5097208;28;20439;-57
2024/01/14 10:53:40;;;;;;;66.47;23.52;;;4.80;99.90;;;;;;5099551;28;20032;-57
2024/01/14 10:56:09;;;;;;;70.50;24.50;;;3.50;99.90;;;;;;5106784;28;20051;-58
2024/01/14 10:58:38;;;;;;;69.85;24.73;;;4.90;99.90;;;;;;5106041;28;20036;-57
2024/01/14 11:01:10;;;;;;;74.90;25.25;;;3.80;99.90;;;;;;5106818;28;20035;-56
2024/01/14 11:03:38;;;;;;;69.25;26.70;;;3.80;99.90;;;;;;5101712;28;20052;-58
2024/01/14 11:06:05;;;;;;;76.15;26.52;;;3.90;99.90;;;;;;5077250;28;20534;-58
2024/01/14 11:08:33;;;;;;;89.47;29.52;;;4.20;99.90;;;;;;5082247;28;20084;-59
2024/01/14 11:10:59;;;;;;;70.22;25.73;;;4.00;99.90;;;;;;5085804;28;20079;-58
2024/01/14 11:13:50;;;;;;;92.97;28.63;;;3.80;99.90;;;;;;5074317;28;20050;-57
2024/01/14 11:16:25;;;;;;;75.57;27.08;;;3.80;99.90;;;;;;5012196;28;20034;-59
2024/01/14 11:19:13;;;;;;;91.95;29.10;;;4.50;99.90;;;;;;5000971;28;20030;-59
2024/01/14 11:21:47;;;;;;;77.07;26.02;;;4.70;99.90;;;;;;5015561;28;20118;-59
2024/01/14 11:24:13;;;;;;;89.45;27.60;;;4.10;99.90;;;;;;5024953;28;20043;-58
2024/01/14 11:26:39;;;;;;;88.95;28.25;;;4.80;99.90;;;;;;5024737;28;20046;-58
2024/01/14 11:29:05;;;;;;;78.47;27.35;;;4.70;99.90;;;;;;5020407;28;20042;-59
2024/01/14 11:32:09;;;;;;;99.75;29.90;;;4.60;99.90;;;;;;5022645;28;20374;-58
2024/01/14 11:34:46;;;;;;;82.90;27.50;;;4.80;99.90;;;;;;5020830;28;20045;-58
2024/01/14 11:37:37;;;;;;;86.55;26.95;;;4.10;99.90;;;;;;5004168;28;20090;-58
2024/01/14 11:40:25;;;;;;;73.45;26.58;;;3.60;99.90;;;;;;5022304;28;20513;-59
2024/01/14 11:42:57;;;;;;;70.35;24.98;;;4.80;99.90;;;;;;5017550;28;20038;-58
2024/01/14 11:45:23;;;;;;;76.35;25.95;;;4.30;99.90;;;;;;5031888;28;20050;-59
2024/01/14 11:47:50;;;;;;;78.20;27.50;;;3.80;99.90;;;;;;5034906;28;20411;-60
2024/01/14 11:50:17;;;;;;;75.80;25.88;;;4.70;99.90;;;;;;5021115;28;20038;-59
2024/01/14 11:52:52;;;;;;;68.93;25.15;;;4.80;99.90;;;;;;5006986;28;20041;-60
2024/01/14 11:55:19;;;;;;;77.25;25.05;;;3.60;99.90;;;;;;4999900;28;20043;-59
2024/01/14 11:57:45;;;;;;;71.85;24.15;;;4.40;99.90;;;;;;5028987;28;20057;-59
2024/01/14 12:00:12;;;;;;;74.65;24.55;;;3.60;99.90;;;;;;5020193;28;20041;-60
2024/01/14 12:02:38;;;;;;;66.50;24.27;;;4.90;99.90;;;;;;5020446;28;20455;-60
2024/01/14 12:05:17;;;;;;;59.85;22.50;;;4.60;99.90;;;;;;5021276;28;20413;-58
2024/01/14 12:07:43;;;;;;;71.10;25.05;;;3.90;99.90;;;;;;5001247;28;20490;-58
2024/01/14 12:10:13;;;;;;;72.25;24.98;;;3.50;99.90;;;;;;5022258;28;20174;-59
2024/01/14 12:12:39;;;;;;;70.22;24.27;;;3.60;99.90;;;;;;5022659;28;20044;-61
2024/01/14 12:15:05;;;;;;;75.43;25.13;;;4.80;99.90;;;;;;5021874;28;20037;-61
2024/01/14 12:17:31;;;;;;;62.05;23.30;;;4.90;99.90;;;;;;5009595;28;20057;-59
2024/01/14 12:20:01;;;;;;;65.18;23.38;;;4.20;99.90;;;;;;5018646;28;20030;-60
2024/01/14 12:22:27;;;;;;;72.15;24.50;;;3.70;99.90;;;;;;5031173;28;20033;-59
2024/01/14 12:24:54;;;;;;;61.75;22.55;;;3.80;99.90;;;;;;5023763;28;20441;-60
2024/01/14 12:27:20;;;;;;;56.97;20.27;;;4.60;99.90;;;;;;5010071;28;20148;-59
2024/01/14 12:29:46;;;;;;;46.45;17.92;;;4.60;99.90;;;;;;5011718;28;20077;-60
2024/01/14 12:32:11;;;;;;;45.70;16.55;;;3.80;99.90;;;;;;5022660;28;20400;-61
2024/01/14 12:34:38;;;;;;;40.22;14.88;;;5.20;99.90;;;;;;4997163;28;20038;-60
2024/01/14 12:37:04;;;;;;;31.95;12.63;;;4.70;99.90;;;;;;5013501;28;20042;-60
2024/01/14 12:39:30;;;;;;;24.55;9.25;;;4.20;99.90;;;;;;5007919;28;20042;-60
2024/01/14 12:41:56;;;;;;;26.35;9.38;;;4.50;99.90;;;;;;5014274;28;20045;-61
2024/01/14 12:44:26;;;;;;;26.58;9.00;;;4.30;99.90;;;;;;5026556;28;20037;-62